AZU5446 SSUV-SBCT
Flight info
| Callsign | AZU5446 |
|---|---|
| Flight time | N/A |
| Altitude | 7000 |
| Route | 2605S05038W DCT KOTIL |
| Aircraft | C208/L-SDFGR/C |
Departure
| Time | 2026-05-05 14:56 |
|---|---|
| Airport | José Cleto Airport (SSUV) |
Arrival
| Time | N/A |
|---|---|
| Airport | Curitiba-Afonso Pena International Airport (SBCT) |
| Time | Latitude | Longitude | Altitude | Speed | Heading |
|---|---|---|---|---|---|
| 2026-05-05 14:37 | -26.22917 | -51.06826 | 2465 ft | 0 kts | 334° |
| 2026-05-05 14:50 | -26.22919 | -51.06817 | 2466 ft | 7 kts | 185° |
| 2026-05-05 14:51 | -26.22938 | -51.06828 | 2463 ft | 2 kts | 212° |
| 2026-05-05 14:51 | -26.22941 | -51.06830 | 2462 ft | 0 kts | 212° |
| 2026-05-05 14:51 | -26.22942 | -51.06831 | 2462 ft | 2 kts | 212° |
| 2026-05-05 14:51 | -26.22971 | -51.06874 | 2463 ft | 12 kts | 218° |
| 2026-05-05 14:52 | -26.23065 | -51.06830 | 2460 ft | 15 kts | 149° |
| 2026-05-05 14:52 | -26.23142 | -51.06777 | 2457 ft | 11 kts | 148° |
| 2026-05-05 14:52 | -26.23192 | -51.06744 | 2457 ft | 6 kts | 149° |
| 2026-05-05 14:52 | -26.23231 | -51.06721 | 2457 ft | 8 kts | 153° |
| 2026-05-05 14:53 | -26.23310 | -51.06677 | 2457 ft | 18 kts | 154° |
| 2026-05-05 14:53 | -26.23410 | -51.06620 | 2456 ft | 13 kts | 151° |
| 2026-05-05 14:53 | -26.23485 | -51.06574 | 2457 ft | 13 kts | 152° |
| 2026-05-05 14:53 | -26.23585 | -51.06514 | 2459 ft | 20 kts | 152° |
| 2026-05-05 14:54 | -26.23652 | -51.06463 | 2459 ft | 1 kts | 2° |
| 2026-05-05 14:54 | -26.23650 | -51.06464 | 2460 ft | 1 kts | 348° |
| 2026-05-05 14:54 | -26.23635 | -51.06470 | 2461 ft | 0 kts | 327° |
| 2026-05-05 14:55 | -26.23519 | -51.06550 | 2458 ft | 41 kts | 329° |
| 2026-05-05 14:55 | -26.23152 | -51.06768 | 2460 ft | 75 kts | 333° |
| 2026-05-05 14:55 | -26.22687 | -51.07088 | 2560 ft | 83 kts | 328° |
| 2026-05-05 14:55 | -26.22122 | -51.07349 | 2684 ft | 91 kts | 359° |
| 2026-05-05 14:56 | -26.21527 | -51.07070 | 2772 ft | 104 kts | 47° |
| 2026-05-05 14:56 | -26.21190 | -51.06338 | 2938 ft | 111 kts | 79° |
| 2026-05-05 14:56 | -26.21229 | -51.05466 | 3131 ft | 116 kts | 105° |
| 2026-05-05 14:56 | -26.21475 | -51.04563 | 3264 ft | 125 kts | 107° |
| 2026-05-05 14:57 | -26.21714 | -51.03610 | 3390 ft | 132 kts | 103° |
| 2026-05-05 14:57 | -26.21541 | -51.02623 | 3536 ft | 133 kts | 64° |
| 2026-05-05 14:57 | -26.21171 | -51.01670 | 3691 ft | 134 kts | 69° |
| 2026-05-05 14:57 | -26.20845 | -51.00708 | 3845 ft | 134 kts | 69° |
| 2026-05-05 14:58 | -26.20515 | -50.99726 | 3999 ft | 135 kts | 69° |
| 2026-05-05 14:58 | -26.20191 | -50.98757 | 4156 ft | 135 kts | 68° |
| 2026-05-05 14:58 | -26.19863 | -50.97778 | 4315 ft | 134 kts | 68° |
| 2026-05-05 14:58 | -26.19537 | -50.96795 | 4507 ft | 136 kts | 67° |
| 2026-05-05 14:59 | -26.19208 | -50.95805 | 4666 ft | 136 kts | 67° |
| 2026-05-05 14:59 | -26.18880 | -50.94824 | 4834 ft | 137 kts | 66° |
| 2026-05-05 14:59 | -26.18547 | -50.93825 | 5012 ft | 137 kts | 65° |
| 2026-05-05 14:59 | -26.18216 | -50.92831 | 5179 ft | 136 kts | 65° |
| 2026-05-05 15:00 | -26.17890 | -50.91850 | 5341 ft | 137 kts | 65° |
| 2026-05-05 15:00 | -26.17664 | -50.91174 | 5456 ft | 137 kts | 65° |
| 2026-05-05 15:00 | -26.17221 | -50.89845 | 5679 ft | 138 kts | 64° |
| 2026-05-05 15:00 | -26.16886 | -50.88844 | 5845 ft | 139 kts | 64° |
| 2026-05-05 15:01 | -26.16550 | -50.87834 | 6018 ft | 138 kts | 64° |
| 2026-05-05 15:01 | -26.16218 | -50.86839 | 6190 ft | 136 kts | 64° |
| 2026-05-05 15:01 | -26.15890 | -50.85860 | 6358 ft | 134 kts | 63° |
| 2026-05-05 15:01 | -26.15568 | -50.84897 | 6532 ft | 133 kts | 63° |
| 2026-05-05 15:02 | -26.15273 | -50.83995 | 6667 ft | 106 kts | 60° |
| 2026-05-05 15:02 | -26.15015 | -50.83263 | 6339 ft | 116 kts | 59° |
| 2026-05-05 15:02 | -26.14718 | -50.82290 | 5828 ft | 137 kts | 73° |
| 2026-05-05 15:02 | -26.14577 | -50.81216 | 5323 ft | 143 kts | 67° |
| 2026-05-05 15:03 | -26.14064 | -50.80257 | 4779 ft | 147 kts | 58° |
| 2026-05-05 15:03 | -26.13652 | -50.79199 | 4229 ft | 149 kts | 67° |
| 2026-05-05 15:03 | -26.13293 | -50.78128 | 3729 ft | 147 kts | 69° |
| 2026-05-05 15:03 | -26.12980 | -50.77197 | 3748 ft | 109 kts | 68° |
| 2026-05-05 15:04 | -26.12747 | -50.76514 | 3722 ft | 86 kts | 69° |
| 2026-05-05 15:04 | -26.12549 | -50.75883 | 3490 ft | 86 kts | 71° |
| 2026-05-05 15:04 | -26.12371 | -50.75218 | 3237 ft | 88 kts | 77° |
| 2026-05-05 15:04 | -26.12268 | -50.74566 | 3064 ft | 83 kts | 83° |
| 2026-05-05 15:05 | -26.12128 | -50.73410 | 3274 ft | 109 kts | 33° |